createdAt,value
2018-12-01T00:00:53.797Z,88.06
2018-12-01T00:01:53.786Z,87.75
2018-12-01T00:02:53.773Z,88.17
2018-12-01T00:03:53.831Z,88.06
2018-12-01T00:04:53.765Z,88.37
2018-12-01T00:05:53.747Z,88.57
2018-12-01T00:06:53.735Z,88.47
2018-12-01T00:07:53.722Z,88.68
2018-12-01T00:08:53.713Z,88.78
2018-12-01T00:09:53.757Z,88.62
2018-12-01T00:10:53.706Z,88.72
2018-12-01T00:11:53.682Z,89.03
2018-12-01T00:12:53.673Z,88.92
2018-12-01T00:13:53.663Z,89.75
2018-12-01T00:14:53.668Z,89.95
2018-12-01T00:15:53.950Z,89.75
2018-12-01T00:16:53.683Z,89.89
2018-12-01T00:17:53.615Z,90.10
2018-12-01T00:18:53.616Z,90.20
2018-12-01T00:19:53.607Z,90.31
2018-12-01T00:20:53.589Z,90.55
2018-12-01T00:21:53.614Z,90.55
2018-12-01T00:22:53.582Z,90.45
2018-12-01T00:23:53.547Z,90.45
2018-12-01T00:24:53.541Z,90.66
2018-12-01T00:25:53.559Z,90.97
2018-12-01T00:26:53.521Z,91.17
2018-12-01T00:27:53.573Z,91.28
2018-12-01T00:28:53.516Z,91.42
2018-12-01T00:29:53.488Z,90.91
2018-12-01T00:30:53.476Z,91.22
2018-12-01T00:31:53.488Z,91.01
2018-12-01T00:32:53.460Z,91.63
2018-12-01T00:33:53.512Z,91.42
2018-12-01T00:34:53.443Z,91.42
2018-12-01T00:35:53.427Z,91.38
2018-12-01T00:36:53.439Z,91.11
2018-12-01T00:37:53.405Z,91.01
2018-12-01T00:38:53.405Z,91.32
2018-12-01T00:39:53.412Z,91.26
2018-12-01T00:40:53.375Z,91.36
2018-12-01T00:41:53.357Z,92.08
2018-12-01T00:42:53.360Z,91.88
2018-12-01T00:43:53.331Z,92.50
2018-12-01T00:44:53.372Z,92.13
2018-12-01T00:45:53.364Z,92.19
2018-12-01T00:46:53.305Z,92.08
2018-12-01T00:47:53.288Z,92.33
2018-12-01T00:48:53.279Z,92.74
2018-12-01T00:49:53.273Z,92.64
2018-12-01T00:50:53.262Z,92.85
2018-12-01T00:51:53.320Z,92.68
2018-12-01T00:52:53.244Z,92.99
2018-12-01T00:53:53.228Z,92.89
2018-12-01T00:54:53.216Z,92.99
2018-12-01T00:55:53.210Z,93.51
2018-12-01T00:56:53.191Z,93.76
2018-12-01T00:57:53.219Z,94.03
2018-12-01T00:58:53.170Z,94.07
2018-12-01T00:59:53.214Z,93.76
2018-12-01T01:00:53.170Z,93.76
2018-12-01T01:01:53.162Z,93.55
2018-12-01T01:02:53.137Z,94.28
2018-12-01T01:03:53.188Z,94.07
2018-12-01T01:04:53.114Z,94.69
2018-12-01T01:05:53.092Z,95.21
2018-12-01T01:06:53.094Z,95.21
2018-12-01T01:07:53.074Z,95.17
2018-12-01T01:08:53.086Z,94.79
2018-12-01T01:09:53.100Z,94.13
2018-12-01T01:10:53.051Z,94.38
2018-12-01T01:11:53.036Z,93.97
2018-12-01T01:12:53.033Z,93.66
2018-12-01T01:13:53.013Z,93.87
2018-12-01T01:14:53.001Z,94.48
2018-12-01T01:15:53.022Z,94.48
2018-12-01T01:16:52.977Z,94.69
2018-12-01T01:17:52.977Z,94.38
2018-12-01T01:18:52.969Z,93.97
2018-12-01T01:19:52.962Z,93.55
2018-12-01T01:20:52.949Z,93.66
2018-12-01T01:21:52.980Z,93.35
2018-12-01T01:22:52.917Z,93.70
2018-12-01T01:23:52.906Z,93.91
2018-12-01T01:24:52.896Z,93.39
2018-12-01T01:25:52.879Z,93.08
2018-12-01T01:26:52.870Z,93.29
2018-12-01T01:27:52.883Z,93.23
2018-12-01T01:28:52.857Z,93.85
2018-12-01T01:29:52.827Z,94.37
2018-12-01T01:30:52.820Z,94.26
2018-12-01T01:31:52.812Z,94.68
2018-12-01T01:32:52.796Z,94.78
2018-12-01T01:33:52.838Z,95.09
2018-12-01T01:34:52.777Z,95.09
2018-12-01T01:35:52.766Z,95.50
2018-12-01T01:36:52.764Z,95.50
2018-12-01T01:37:52.740Z,94.89
2018-12-01T01:38:52.730Z,95.50
2018-12-01T01:39:52.749Z,95.50
2018-12-01T01:40:52.710Z,95.19
2018-12-01T01:41:52.695Z,94.89
2018-12-01T01:42:52.696Z,95.40
2018-12-01T01:43:52.683Z,94.98
2018-12-01T01:44:52.669Z,95.29
2018-12-01T01:45:52.734Z,95.29
2018-12-01T01:46:52.718Z,95.50
2018-12-01T01:47:52.656Z,95.40
2018-12-01T01:48:52.637Z,95.29
2018-12-01T01:49:52.628Z,94.98
2018-12-01T01:50:52.621Z,95.04
2018-12-01T01:51:52.623Z,94.89
2018-12-01T01:52:52.590Z,94.89
2018-12-01T01:53:52.568Z,95.25
2018-12-01T01:54:52.561Z,95.46
2018-12-01T01:55:52.550Z,95.25
2018-12-01T01:56:52.548Z,95.36
2018-12-01T01:57:52.585Z,95.36
2018-12-01T01:58:52.519Z,94.73
2018-12-01T01:59:52.521Z,95.21
2018-12-01T02:00:52.500Z,94.38
2018-12-01T02:01:52.493Z,94.69
2018-12-01T02:02:52.504Z,94.38
2018-12-01T02:03:52.515Z,94.18
2018-12-01T02:04:52.458Z,94.18
2018-12-01T02:05:52.448Z,93.45
2018-12-01T02:06:52.432Z,94.07
2018-12-01T02:07:52.430Z,93.62
2018-12-01T02:08:52.404Z,93.72
2018-12-01T02:09:52.453Z,93.41
2018-12-01T02:10:52.383Z,93.51
2018-12-01T02:11:52.370Z,93.30
2018-12-01T02:12:52.381Z,93.10
2018-12-01T02:13:52.349Z,93.41
2018-12-01T02:14:52.343Z,93.62
2018-12-01T02:15:52.372Z,93.10
2018-12-01T02:16:52.318Z,93.10
2018-12-01T02:17:52.321Z,92.99
2018-12-01T02:18:52.294Z,92.64
2018-12-01T02:19:52.286Z,92.79
2018-12-01T02:20:52.280Z,92.89
2018-12-01T02:21:52.309Z,93.10
2018-12-01T02:22:52.250Z,93.30
2018-12-01T02:23:52.251Z,92.95
2018-12-01T02:24:52.232Z,92.54
2018-12-01T02:25:52.230Z,92.33
2018-12-01T02:26:52.249Z,92.54
2018-12-01T02:27:52.229Z,92.44
2018-12-01T02:28:52.193Z,92.54
2018-12-01T02:29:52.197Z,92.74
2018-12-01T02:30:52.167Z,92.64
2018-12-01T02:31:52.154Z,92.54
2018-12-01T02:32:52.151Z,92.54
2018-12-01T02:33:52.199Z,92.74
2018-12-01T02:34:52.127Z,92.74
2018-12-01T02:35:52.112Z,92.44
2018-12-01T02:36:52.103Z,91.96
2018-12-01T02:37:52.102Z,92.44
2018-12-01T02:38:52.091Z,92.38
2018-12-01T02:39:52.122Z,92.52
2018-12-01T02:40:52.067Z,92.48
2018-12-01T02:41:52.052Z,92.99
2018-12-01T02:42:52.046Z,93.30
2018-12-01T02:43:52.033Z,92.79
2018-12-01T02:44:52.029Z,92.68
2018-12-01T02:45:52.031Z,92.79
2018-12-01T02:46:51.993Z,93.10
2018-12-01T02:47:51.993Z,92.89
2018-12-01T02:48:51.984Z,92.68
2018-12-01T02:49:51.955Z,92.89
2018-12-01T02:50:51.954Z,93.20
2018-12-01T02:51:52.234Z,92.83
2018-12-01T02:52:51.930Z,93.35
2018-12-01T02:53:51.913Z,92.83
2018-12-01T02:54:51.904Z,92.63
2018-12-01T02:55:51.904Z,92.83
2018-12-01T02:56:51.891Z,92.63
2018-12-01T02:57:51.928Z,93.14
2018-12-01T02:58:51.857Z,93.39
2018-12-01T02:59:51.897Z,93.04
2018-12-01T03:00:51.835Z,93.80
2018-12-01T03:01:51.823Z,93.70
2018-12-01T03:02:51.816Z,93.80
2018-12-01T03:03:51.864Z,94.12
2018-12-01T03:04:51.829Z,94.01
2018-12-01T03:05:51.782Z,93.91
2018-12-01T03:06:51.770Z,94.32
2018-12-01T03:07:51.758Z,94.37
2018-12-01T03:08:51.754Z,94.12
2018-12-01T03:09:51.790Z,94.26
2018-12-01T03:10:51.735Z,94.43
2018-12-01T03:11:51.716Z,94.26
2018-12-01T03:12:51.712Z,94.26
2018-12-01T03:13:51.698Z,94.37
2018-12-01T03:14:51.681Z,94.89
2018-12-01T03:15:51.719Z,94.98
2018-12-01T03:16:51.670Z,94.98
2018-12-01T03:17:51.657Z,94.89
2018-12-01T03:18:51.661Z,95.40
2018-12-01T03:19:51.662Z,95.34
2018-12-01T03:20:51.623Z,95.50
2018-12-01T03:21:51.723Z,95.54
2018-12-01T03:22:51.604Z,95.24
2018-12-01T03:23:51.596Z,95.09
2018-12-01T03:24:51.575Z,95.54
2018-12-01T03:25:51.597Z,95.54
2018-12-01T03:26:51.562Z,95.75
2018-12-01T03:27:51.605Z,95.34
2018-12-01T03:28:51.533Z,95.96
2018-12-01T03:29:51.527Z,96.58
2018-12-01T03:30:51.522Z,95.96
2018-12-01T03:31:51.498Z,96.27
2018-12-01T03:32:51.491Z,96.37
2018-12-01T03:33:51.523Z,95.59
2018-12-01T03:34:51.477Z,95.59
2018-12-01T03:35:51.453Z,95.28
2018-12-01T03:36:51.441Z,95.49
2018-12-01T03:37:51.436Z,95.39
2018-12-01T03:38:51.429Z,95.12
2018-12-01T03:39:51.468Z,95.74
2018-12-01T03:40:51.402Z,96.05
2018-12-01T03:41:51.397Z,96.15
2018-12-01T03:42:51.384Z,96.36
2018-12-01T03:43:51.371Z,96.05
2018-12-01T03:44:51.361Z,96.61
2018-12-01T03:45:51.407Z,96.41
2018-12-01T03:46:51.337Z,96.92
2018-12-01T03:47:51.327Z,96.92
2018-12-01T03:48:51.310Z,96.82
2018-12-01T03:49:51.310Z,96.51
2018-12-01T03:50:51.301Z,96.51
2018-12-01T03:51:51.319Z,96.61
2018-12-01T03:52:51.270Z,96.24
2018-12-01T03:53:51.263Z,96.55
2018-12-01T03:54:51.269Z,96.55
2018-12-01T03:55:51.247Z,96.66
2018-12-01T03:56:51.232Z,97.07
2018-12-01T03:57:51.270Z,97.17
2018-12-01T03:58:51.212Z,97.69
2018-12-01T03:59:51.204Z,97.80
2018-12-01T04:00:51.197Z,98.11
2018-12-01T04:01:51.167Z,98.07
2018-12-01T04:02:51.169Z,97.86
2018-12-01T04:03:51.455Z,98.00
2018-12-01T04:04:51.153Z,97.59
2018-12-01T04:05:51.130Z,97.44
2018-12-01T04:06:51.186Z,97.55
2018-12-01T04:07:51.120Z,97.69
2018-12-01T04:08:51.109Z,97.28
2018-12-01T04:09:51.139Z,97.55
2018-12-01T04:10:51.079Z,97.71
2018-12-01T04:11:51.068Z,97.86
2018-12-01T04:12:51.063Z,97.13
2018-12-01T04:13:51.036Z,97.75
2018-12-01T04:14:51.037Z,97.86
2018-12-01T04:15:51.065Z,97.50
2018-12-01T04:16:51.007Z,97.75
2018-12-01T04:17:51.000Z,97.50
2018-12-01T04:18:50.996Z,97.39
2018-12-01T04:19:50.974Z,97.50
2018-12-01T04:20:50.960Z,97.50
2018-12-01T04:21:50.996Z,97.09
2018-12-01T04:22:50.949Z,96.78
2018-12-01T04:23:50.944Z,96.88
2018-12-01T04:24:50.928Z,96.36
2018-12-01T04:25:50.916Z,96.15
2018-12-01T04:26:50.900Z,96.42
2018-12-01T04:27:50.939Z,96.31
2018-12-01T04:28:50.872Z,95.59
2018-12-01T04:29:50.864Z,95.22
2018-12-01T04:30:50.858Z,95.43
2018-12-01T04:31:50.843Z,95.01
2018-12-01T04:32:50.835Z,95.32
2018-12-01T04:33:50.886Z,95.53
2018-12-01T04:34:50.808Z,95.53
2018-12-01T04:35:50.797Z,95.68
2018-12-01T04:36:50.785Z,95.89
2018-12-01T04:37:50.777Z,95.89
2018-12-01T04:38:50.766Z,96.51
2018-12-01T04:39:50.795Z,96.30
2018-12-01T04:40:50.754Z,97.09
2018-12-01T04:41:50.748Z,97.34
2018-12-01T04:42:50.727Z,97.09
2018-12-01T04:43:50.724Z,97.29
2018-12-01T04:44:50.710Z,97.39
2018-12-01T04:45:50.742Z,97.60
2018-12-01T04:46:50.689Z,97.45
2018-12-01T04:47:50.669Z,96.94
2018-12-01T04:48:50.658Z,96.62
2018-12-01T04:49:50.655Z,96.94
2018-12-01T04:50:50.633Z,96.83
2018-12-01T04:51:50.667Z,96.79
2018-12-01T04:52:50.615Z,96.79
2018-12-01T04:53:50.600Z,95.96
2018-12-01T04:54:50.600Z,96.02
2018-12-01T04:55:50.589Z,96.23
2018-12-01T04:56:50.582Z,95.61
2018-12-01T04:57:50.607Z,94.98
2018-12-01T04:58:50.546Z,95.25
2018-12-01T04:59:50.534Z,94.63
2018-12-01T05:00:50.527Z,94.53
2018-12-01T05:01:50.517Z,93.49
2018-12-01T05:02:50.506Z,94.12
2018-12-01T05:03:50.558Z,93.70
2018-12-01T05:04:50.482Z,93.97
2018-12-01T05:05:50.473Z,93.76
2018-12-01T05:06:50.462Z,93.66
2018-12-01T05:07:50.454Z,93.45
2018-12-01T05:08:50.441Z,92.63
2018-12-01T05:09:50.484Z,92.42
2018-12-01T05:10:50.431Z,92.83
2018-12-01T05:11:50.414Z,92.52
2018-12-01T05:12:50.398Z,92.21
2018-12-01T05:13:50.382Z,93.04
2018-12-01T05:14:50.375Z,93.35
2018-12-01T05:15:50.424Z,93.24
2018-12-01T05:16:50.353Z,92.72
2018-12-01T05:17:50.343Z,92.32
2018-12-01T05:18:50.330Z,92.42
2018-12-01T05:19:50.323Z,92.63
2018-12-01T05:20:50.317Z,92.63
2018-12-01T05:21:50.337Z,92.63
2018-12-01T05:22:50.291Z,93.04
2018-12-01T05:23:50.292Z,92.57
2018-12-01T05:24:50.262Z,93.14
2018-12-01T05:25:50.252Z,93.39
2018-12-01T05:26:50.251Z,92.77
2018-12-01T05:27:50.265Z,92.87
2018-12-01T05:28:50.218Z,93.49
2018-12-01T05:29:50.234Z,93.70
2018-12-01T05:30:50.200Z,93.49
2018-12-01T05:31:50.187Z,93.60
2018-12-01T05:32:50.178Z,93.70
2018-12-01T05:33:50.216Z,93.60
2018-12-01T05:34:50.164Z,93.39
2018-12-01T05:35:50.174Z,93.39
2018-12-01T05:36:50.131Z,93.91
2018-12-01T05:37:50.121Z,93.29
2018-12-01T05:38:50.111Z,93.70
2018-12-01T05:39:50.141Z,93.70
2018-12-01T05:40:50.088Z,93.43
2018-12-01T05:41:50.079Z,93.12
2018-12-01T05:42:50.072Z,93.18
2018-12-01T05:43:50.056Z,93.80
2018-12-01T05:44:50.050Z,93.70
2018-12-01T05:45:50.082Z,93.70
2018-12-01T05:46:50.022Z,93.80
2018-12-01T05:47:50.014Z,93.43
2018-12-01T05:48:50.005Z,93.49
2018-12-01T05:49:49.989Z,93.91
2018-12-01T05:50:49.979Z,93.91
2018-12-01T05:51:50.031Z,93.49
2018-12-01T05:52:49.979Z,93.49
2018-12-01T05:53:49.963Z,93.18
2018-12-01T05:54:49.997Z,93.08
2018-12-01T05:55:49.935Z,93.49
2018-12-01T05:56:49.926Z,93.49
2018-12-01T05:57:49.963Z,93.60
2018-12-01T05:58:49.923Z,94.01
2018-12-01T05:59:49.880Z,93.29
2018-12-01T06:00:49.873Z,93.55
2018-12-01T06:01:49.884Z,93.66
2018-12-01T06:02:49.858Z,93.55
2018-12-01T06:03:49.882Z,93.66
2018-12-01T06:04:49.833Z,93.45
2018-12-01T06:05:49.839Z,92.83
2018-12-01T06:06:49.858Z,92.68
2018-12-01T06:07:49.836Z,92.21
2018-12-01T06:08:49.785Z,92.68
2018-12-01T06:09:49.837Z,92.38
2018-12-01T06:10:49.768Z,92.07
2018-12-01T06:11:49.757Z,92.07
2018-12-01T06:12:49.752Z,91.96
2018-12-01T06:13:49.739Z,91.86
2018-12-01T06:14:49.769Z,91.96
2018-12-01T06:15:49.754Z,92.00
2018-12-01T06:16:49.724Z,92.48
2018-12-01T06:17:49.713Z,92.48
2018-12-01T06:18:49.698Z,92.07
2018-12-01T06:19:49.669Z,92.07
2018-12-01T06:20:49.663Z,92.17
2018-12-01T06:21:49.685Z,91.96
2018-12-01T06:22:49.660Z,91.75
2018-12-01T06:23:49.635Z,92.07
2018-12-01T06:24:49.646Z,91.96
2018-12-01T06:25:49.617Z,92.07
2018-12-01T06:26:49.591Z,92.38
2018-12-01T06:27:49.661Z,92.17
2018-12-01T06:28:49.573Z,91.96
2018-12-01T06:29:49.578Z,91.55
2018-12-01T06:30:49.551Z,92.07
2018-12-01T06:31:49.539Z,92.68
2018-12-01T06:32:49.527Z,92.54
2018-12-01T06:33:49.574Z,91.92
2018-12-01T06:34:49.531Z,92.13
2018-12-01T06:35:49.519Z,91.92
2018-12-01T06:36:49.550Z,91.30
2018-12-01T06:37:49.471Z,91.71
2018-12-01T06:38:49.513Z,91.82
2018-12-01T06:39:49.507Z,91.40
2018-12-01T06:40:49.443Z,91.30
2018-12-01T06:41:49.435Z,92.13
2018-12-01T06:42:49.412Z,92.13
2018-12-01T06:43:49.410Z,92.44
2018-12-01T06:44:49.406Z,92.13
2018-12-01T06:45:49.426Z,92.02
2018-12-01T06:46:49.372Z,92.13
2018-12-01T06:47:49.367Z,92.23
2018-12-01T06:48:49.364Z,92.85
2018-12-01T06:49:49.336Z,92.33
2018-12-01T06:50:49.336Z,92.68
2018-12-01T06:51:49.351Z,92.99
2018-12-01T06:52:49.316Z,92.89
2018-12-01T06:53:49.302Z,92.64
2018-12-01T06:54:49.297Z,92.74
2018-12-01T06:55:49.280Z,92.44
2018-12-01T06:56:49.261Z,91.98
2018-12-01T06:57:49.297Z,92.23
2018-12-01T06:58:49.240Z,91.26
2018-12-01T06:59:49.235Z,90.74
2018-12-01T07:00:49.222Z,90.28
2018-12-01T07:01:49.208Z,90.39
2018-12-01T07:02:49.201Z,90.08
2018-12-01T07:03:49.298Z,89.98
2018-12-01T07:04:49.185Z,89.56
2018-12-01T07:05:49.169Z,90.08
2018-12-01T07:06:49.153Z,90.08
2018-12-01T07:07:49.150Z,89.42
2018-12-01T07:08:49.145Z,89.98
2018-12-01T07:09:49.208Z,89.67
2018-12-01T07:10:49.148Z,89.77
2018-12-01T07:11:49.113Z,89.87
2018-12-01T07:12:49.131Z,89.87
2018-12-01T07:13:49.099Z,89.94
2018-12-01T07:14:49.075Z,90.08
2018-12-01T07:15:49.104Z,90.04
2018-12-01T07:16:49.091Z,89.94
2018-12-01T07:17:49.044Z,89.73
2018-12-01T07:18:49.033Z,89.83
2018-12-01T07:19:49.033Z,89.87
2018-12-01T07:20:49.026Z,89.98
2018-12-01T07:21:49.065Z,90.04
2018-12-01T07:22:49.021Z,90.04
2018-12-01T07:23:48.981Z,89.94
2018-12-01T07:24:48.977Z,89.73
2018-12-01T07:25:48.985Z,89.94
2018-12-01T07:26:48.950Z,90.04
2018-12-01T07:27:48.975Z,89.28
2018-12-01T07:28:48.921Z,89.22
2018-12-01T07:29:48.927Z,89.22
2018-12-01T07:30:48.912Z,89.11
2018-12-01T07:31:48.898Z,88.96
2018-12-01T07:32:48.888Z,89.32
2018-12-01T07:33:48.927Z,89.07
2018-12-01T07:34:48.856Z,88.96
2018-12-01T07:35:48.844Z,89.07
2018-12-01T07:36:48.863Z,89.17
2018-12-01T07:37:48.857Z,89.73
2018-12-01T07:38:48.813Z,89.01
2018-12-01T07:39:48.854Z,89.32
2018-12-01T07:40:48.886Z,89.07
2018-12-01T07:41:48.785Z,89.01
2018-12-01T07:42:48.780Z,88.45
2018-12-01T07:43:48.759Z,88.86
2018-12-01T07:44:48.753Z,88.86
2018-12-01T07:45:48.786Z,88.65
2018-12-01T07:46:48.742Z,87.93
2018-12-01T07:47:48.719Z,87.83
2018-12-01T07:48:48.706Z,88.24
2018-12-01T07:49:48.693Z,88.31
2018-12-01T07:50:48.688Z,87.59
2018-12-01T07:51:48.752Z,87.59
2018-12-01T07:52:48.663Z,87.27
2018-12-01T07:53:48.646Z,86.55
2018-12-01T07:54:48.651Z,86.87
2018-12-01T07:55:48.643Z,86.97
2018-12-01T07:56:48.625Z,86.66
2018-12-01T07:57:48.727Z,86.87
2018-12-01T07:58:48.602Z,86.87
2018-12-01T07:59:48.585Z,86.87
2018-12-01T08:00:48.609Z,86.97
2018-12-01T08:01:48.563Z,86.72
2018-12-01T08:02:48.562Z,86.82
2018-12-01T08:03:48.586Z,86.61
2018-12-01T08:04:48.531Z,87.03
2018-12-01T08:05:48.530Z,86.72
2018-12-01T08:06:48.532Z,86.82
2018-12-01T08:07:48.503Z,86.61
2018-12-01T08:08:48.557Z,87.34
2018-12-01T08:09:48.519Z,86.68
2018-12-01T08:10:48.479Z,86.72
2018-12-01T08:11:48.456Z,87.19
2018-12-01T08:12:48.461Z,86.58
2018-12-01T08:13:48.479Z,86.79
2018-12-01T08:14:48.430Z,86.37
2018-12-01T08:15:48.465Z,86.47
2018-12-01T08:16:48.398Z,86.16
2018-12-01T08:17:48.386Z,86.06
2018-12-01T08:18:48.386Z,86.37
2018-12-01T08:19:48.371Z,86.37
2018-12-01T08:20:48.371Z,86.27
2018-12-01T08:21:48.388Z,86.27
2018-12-01T08:22:48.334Z,86.47
2018-12-01T08:23:48.325Z,86.68
2018-12-01T08:24:48.313Z,86.47
2018-12-01T08:25:48.323Z,87.09
2018-12-01T08:26:48.295Z,86.58
2018-12-01T08:27:48.338Z,86.68
2018-12-01T08:28:48.267Z,86.88
2018-12-01T08:29:48.297Z,86.58
2018-12-01T08:30:48.269Z,86.79
2018-12-01T08:31:48.233Z,86.68
2018-12-01T08:32:48.293Z,86.93
2018-12-01T08:33:48.290Z,86.58
2018-12-01T08:34:48.211Z,86.47
2018-12-01T08:35:48.192Z,86.68
2018-12-01T08:36:48.185Z,86.82
2018-12-01T08:37:48.233Z,87.13
2018-12-01T08:38:48.183Z,86.31
2018-12-01T08:39:48.342Z,86.68
2018-12-01T08:40:48.145Z,86.93
2018-12-01T08:41:48.141Z,87.03
2018-12-01T08:42:48.144Z,87.03
2018-12-01T08:43:48.101Z,86.52
2018-12-01T08:44:48.089Z,86.72
2018-12-01T08:45:48.157Z,87.03
2018-12-01T08:46:48.067Z,86.88
2018-12-01T08:47:48.061Z,86.58
2018-12-01T08:48:48.144Z,86.79
2018-12-01T08:49:48.100Z,86.58
2018-12-01T08:50:48.030Z,86.74
2018-12-01T08:51:48.171Z,86.64
2018-12-01T08:52:48.013Z,86.33
2018-12-01T08:53:48.014Z,86.58
2018-12-01T08:54:47.991Z,86.74
2018-12-01T08:55:48.008Z,86.64
2018-12-01T08:56:47.970Z,86.43
2018-12-01T08:57:48.000Z,86.64
2018-12-01T08:58:47.950Z,86.64
2018-12-01T08:59:47.931Z,86.85
2018-12-01T09:00:47.915Z,86.50
2018-12-01T09:01:47.906Z,86.85
2018-12-01T09:02:47.900Z,86.74
2018-12-01T09:03:47.928Z,86.70
2018-12-01T09:04:48.092Z,86.50
2018-12-01T09:05:47.898Z,86.50
2018-12-01T09:06:47.865Z,86.70
2018-12-01T09:07:47.867Z,86.70
2018-12-01T09:08:47.827Z,86.40
2018-12-01T09:09:47.861Z,86.50
2018-12-01T09:10:47.814Z,86.29
2018-12-01T09:11:47.805Z,86.15
2018-12-01T09:12:47.804Z,86.05
2018-12-01T09:13:47.787Z,85.84
2018-12-01T09:14:47.764Z,86.15
2018-12-01T09:15:48.058Z,86.15
2018-12-01T09:16:47.746Z,85.84
2018-12-01T09:17:47.748Z,85.84
2018-12-01T09:18:47.718Z,85.63
2018-12-01T09:19:47.709Z,85.74
2018-12-01T09:20:47.719Z,86.15
2018-12-01T09:21:47.717Z,85.94
2018-12-01T09:22:47.683Z,85.74
2018-12-01T09:23:47.691Z,86.25
2018-12-01T09:24:47.678Z,85.70
2018-12-01T09:25:47.644Z,85.94
2018-12-01T09:26:47.639Z,85.94
2018-12-01T09:27:47.756Z,85.49
2018-12-01T09:28:47.618Z,85.90
2018-12-01T09:29:47.602Z,86.11
2018-12-01T09:30:47.591Z,85.39
2018-12-01T09:31:47.577Z,85.08
2018-12-01T09:32:47.605Z,85.60
2018-12-01T09:33:47.611Z,85.39
2018-12-01T09:34:47.544Z,85.90
2018-12-01T09:35:47.559Z,85.49
2018-12-01T09:36:47.718Z,85.70
2018-12-01T09:37:47.530Z,85.49
2018-12-01T09:38:47.508Z,85.76
2018-12-01T09:39:47.574Z,85.76
2018-12-01T09:40:47.497Z,85.35
2018-12-01T09:41:47.482Z,85.90
2018-12-01T09:42:47.455Z,86.11
2018-12-01T09:43:47.461Z,85.66
2018-12-01T09:44:47.433Z,85.80
2018-12-01T09:45:47.467Z,85.70
2018-12-01T09:46:47.429Z,85.39
2018-12-01T09:47:47.399Z,85.70
2018-12-01T09:48:47.390Z,85.49
2018-12-01T09:49:47.380Z,85.18
2018-12-01T09:50:47.370Z,84.98
2018-12-01T09:51:47.414Z,85.04
2018-12-01T09:52:47.348Z,85.35
2018-12-01T09:53:47.341Z,84.63
2018-12-01T09:54:47.328Z,84.63
2018-12-01T09:55:47.357Z,85.14
2018-12-01T09:56:47.327Z,85.04
2018-12-01T09:57:47.338Z,84.67
2018-12-01T09:58:47.285Z,85.25
2018-12-01T09:59:47.273Z,84.77
2018-12-01T10:00:47.265Z,84.74
2018-12-01T10:01:47.250Z,84.53
2018-12-01T10:02:47.271Z,84.42
2018-12-01T10:03:47.276Z,83.91
2018-12-01T10:04:47.216Z,83.87
2018-12-01T10:05:47.204Z,83.98
2018-12-01T10:06:47.210Z,83.05
2018-12-01T10:07:47.205Z,83.12
2018-12-01T10:08:47.167Z,83.12
2018-12-01T10:09:47.206Z,83.32
2018-12-01T10:10:47.147Z,82.87
2018-12-01T10:11:50.476Z,82.67
2018-12-01T10:12:47.124Z,81.43
2018-12-01T10:13:47.115Z,82.26
2018-12-01T10:14:47.102Z,81.23
2018-12-01T10:15:47.120Z,80.88
2018-12-01T10:16:47.080Z,80.99
2018-12-01T10:17:47.071Z,80.07
2018-12-01T10:18:47.063Z,79.75
2018-12-01T10:19:47.083Z,79.62
2018-12-01T10:20:47.041Z,79.31
2018-12-01T10:21:47.312Z,79.62
2018-12-01T10:22:47.060Z,78.97
2018-12-01T10:23:47.019Z,79.31
2018-12-01T10:24:47.001Z,79.38
2018-12-01T10:25:47.132Z,79.27
2018-12-01T10:26:47.014Z,78.35
2018-12-01T10:27:47.037Z,78.45
2018-12-01T10:28:46.980Z,79.17
2018-12-01T10:29:47.000Z,78.56
2018-12-01T10:30:46.934Z,79.00
2018-12-01T10:31:46.927Z,78.70
2018-12-01T10:32:46.919Z,77.77
2018-12-01T10:33:46.939Z,78.39
2018-12-01T10:34:46.891Z,78.19
2018-12-01T10:35:46.880Z,77.36
2018-12-01T10:36:46.863Z,77.67
2018-12-01T10:37:46.861Z,77.77
2018-12-01T10:38:46.845Z,77.77
2018-12-01T10:39:46.875Z,78.28
2018-12-01T10:40:46.838Z,77.67
2018-12-01T10:41:46.919Z,77.06
2018-12-01T10:42:46.797Z,77.40
2018-12-01T10:43:47.042Z,77.67
2018-12-01T10:44:46.845Z,77.77
2018-12-01T10:45:46.808Z,77.67
2018-12-01T10:46:46.765Z,77.57
2018-12-01T10:47:46.813Z,78.08
2018-12-01T10:48:46.759Z,77.36
2018-12-01T10:49:46.777Z,76.85
2018-12-01T10:50:46.740Z,77.12
2018-12-01T10:51:46.754Z,76.85
2018-12-01T10:52:46.721Z,76.95
2018-12-01T10:53:46.727Z,76.75
2018-12-01T10:54:46.687Z,77.26
2018-12-01T10:55:46.729Z,78.15
2018-12-01T10:56:46.652Z,76.40
2018-12-01T10:57:46.706Z,74.97
2018-12-01T10:58:46.703Z,75.28
2018-12-01T10:59:46.644Z,75.89
2018-12-01T11:00:46.618Z,76.24
2018-12-01T11:01:46.688Z,75.52
2018-12-01T11:02:46.596Z,75.42
2018-12-01T11:03:46.683Z,75.48
2018-12-01T11:04:46.572Z,75.69
2018-12-01T11:05:46.568Z,75.52
2018-12-01T11:06:46.545Z,75.01
2018-12-01T11:07:46.573Z,74.43
2018-12-01T11:08:46.533Z,74.19
2018-12-01T11:09:46.577Z,74.60
2018-12-01T11:10:46.524Z,74.49
2018-12-01T11:11:46.506Z,75.21
2018-12-01T11:12:46.482Z,75.73
2018-12-01T11:13:46.482Z,74.70
2018-12-01T11:14:46.509Z,74.08
2018-12-01T11:15:46.486Z,73.98
2018-12-01T11:16:46.466Z,74.19
2018-12-01T11:17:46.531Z,74.29
2018-12-01T11:18:46.484Z,74.32
2018-12-01T11:19:46.504Z,74.49
2018-12-01T11:20:46.438Z,74.94
2018-12-01T11:21:47.417Z,74.39
2018-12-01T11:22:46.379Z,73.98
2018-12-01T11:23:46.371Z,73.88
2018-12-01T11:24:46.348Z,73.36
2018-12-01T11:25:46.353Z,73.27
2018-12-01T11:26:46.435Z,74.36
2018-12-01T11:27:46.375Z,74.26
2018-12-01T11:28:46.321Z,73.03
2018-12-01T11:29:46.307Z,72.65
2018-12-01T11:30:46.285Z,73.85
2018-12-01T11:31:46.281Z,73.23
2018-12-01T11:32:46.266Z,72.52
2018-12-01T11:33:46.298Z,72.61
2018-12-01T11:34:46.285Z,72.52
2018-12-01T11:35:46.232Z,72.61
2018-12-01T11:36:46.222Z,71.39
2018-12-01T11:37:46.205Z,72.00
2018-12-01T11:38:46.200Z,71.59
2018-12-01T11:39:46.297Z,71.56
2018-12-01T11:40:46.197Z,70.43
2018-12-01T11:41:46.163Z,70.23
2018-12-01T11:42:46.152Z,71.15
2018-12-01T11:43:46.149Z,70.03
2018-12-01T11:44:46.132Z,70.23
2018-12-01T11:45:46.176Z,69.82
2018-12-01T11:46:46.116Z,69.00
2018-12-01T11:47:46.120Z,68.90
2018-12-01T11:48:46.088Z,69.61
2018-12-01T11:49:46.088Z,69.58
2018-12-01T11:50:46.156Z,68.79
2018-12-01T11:51:46.143Z,68.49
2018-12-01T11:52:46.051Z,69.20
2018-12-01T11:53:46.047Z,68.69
2018-12-01T11:54:46.042Z,68.69
2018-12-01T11:55:46.030Z,69.00
2018-12-01T11:56:46.005Z,70.33
2018-12-01T11:57:46.037Z,70.23
2018-12-01T11:58:46.040Z,70.74
2018-12-01T11:59:45.977Z,69.24
2018-12-01T12:00:45.961Z,69.44
2018-12-01T12:01:45.948Z,69.54
2018-12-01T12:02:45.939Z,69.20
2018-12-01T12:03:45.968Z,69.31
2018-12-01T12:04:45.914Z,68.90
2018-12-01T12:05:45.909Z,69.61
2018-12-01T12:06:45.912Z,68.18
2018-12-01T12:07:45.881Z,68.59
2018-12-01T12:08:45.868Z,69.10
2018-12-01T12:09:45.907Z,68.59
2018-12-01T12:10:45.875Z,69.20
2018-12-01T12:11:45.837Z,70.33
2018-12-01T12:12:45.829Z,70.64
2018-12-01T12:13:45.833Z,70.09
2018-12-01T12:14:45.802Z,70.61
2018-12-01T12:15:45.840Z,69.10
2018-12-01T12:16:45.791Z,70.03
2018-12-01T12:17:45.878Z,68.87
2018-12-01T12:18:45.764Z,69.07
2018-12-01T12:19:45.761Z,69.17
2018-12-01T12:20:45.758Z,69.79
2018-12-01T12:21:45.772Z,68.18
2018-12-01T12:22:45.723Z,67.67
2018-12-01T12:23:45.715Z,68.01
2018-12-01T12:24:45.695Z,68.73
2018-12-01T12:25:45.708Z,69.24
2018-12-01T12:26:45.697Z,69.03
2018-12-01T12:27:45.789Z,68.93
2018-12-01T12:28:45.658Z,69.95
2018-12-01T12:29:45.643Z,70.70
2018-12-01T12:30:45.646Z,71.01
2018-12-01T12:31:45.685Z,70.98
2018-12-01T12:32:45.622Z,71.42
2018-12-01T12:33:45.650Z,71.42
2018-12-01T12:34:45.588Z,71.69
2018-12-01T12:35:45.579Z,71.11
2018-12-01T12:36:45.570Z,70.87
2018-12-01T12:37:45.567Z,71.32
2018-12-01T12:38:45.552Z,70.98
2018-12-01T12:39:45.582Z,70.87
2018-12-01T12:40:45.535Z,70.77
2018-12-01T12:41:45.515Z,71.62
2018-12-01T12:42:45.676Z,71.32
2018-12-01T12:43:45.505Z,70.57
2018-12-01T12:44:45.480Z,70.60
2018-12-01T12:45:45.520Z,70.81
2018-12-01T12:46:45.479Z,69.17
2018-12-01T12:47:45.444Z,69.47
2018-12-01T12:48:45.473Z,70.70
2018-12-01T12:49:45.428Z,70.40
2018-12-01T12:50:45.442Z,70.29
2018-12-01T12:51:45.437Z,70.60
2018-12-01T12:52:45.397Z,70.70